sensor_id;sensor_type;location;lat;lon;timestamp;temperature;humidity
48206;DHT22;33995;48.202;16.260;2024-01-10T00:00:47;-7.80;99.90
48206;DHT22;33995;48.202;16.260;2024-01-10T00:03:14;-8.00;99.90
48206;DHT22;33995;48.202;16.260;2024-01-10T00:05:41;-8.00;99.90
48206;DHT22;33995;48.202;16.260;2024-01-10T00:08:08;-8.00;99.90
48206;DHT22;33995;48.202;16.260;2024-01-10T00:10:35;-7.90;99.90
48206;DHT22;33995;48.202;16.260;2024-01-10T00:13:02;-7.90;99.90
48206;DHT22;33995;48.202;16.260;2024-01-10T00:15:29;-7.90;99.90
48206;DHT22;33995;48.202;16.260;2024-01-10T00:17:56;-7.90;99.90
48206;DHT22;33995;48.202;16.260;2024-01-10T00:20:24;-8.00;99.90
48206;DHT22;33995;48.202;16.260;2024-01-10T00:22:51;-7.90;99.90
48206;DHT22;33995;48.202;16.260;2024-01-10T00:25:21;-7.90;99.90
48206;DHT22;33995;48.202;16.260;2024-01-10T00:27:50;-7.90;99.90
48206;DHT22;33995;48.202;16.260;2024-01-10T00:30:18;-7.90;99.90
48206;DHT22;33995;48.202;16.260;2024-01-10T00:32:45;-7.90;99.90
48206;DHT22;33995;48.202;16.260;2024-01-10T00:35:12;-8.00;99.90
48206;DHT22;33995;48.202;16.260;2024-01-10T00:37:39;-8.00;99.90
48206;DHT22;33995;48.202;16.260;2024-01-10T00:40:06;-8.00;99.90
48206;DHT22;33995;48.202;16.260;2024-01-10T00:42:34;-8.10;99.90
48206;DHT22;33995;48.202;16.260;2024-01-10T00:45:01;-8.10;99.90
48206;DHT22;33995;48.202;16.260;2024-01-10T00:47:28;-8.00;99.90
48206;DHT22;33995;48.202;16.260;2024-01-10T00:49:56;-8.10;99.90
48206;DHT22;33995;48.202;16.260;2024-01-10T00:52:23;-8.10;99.90
48206;DHT22;33995;48.202;16.260;2024-01-10T00:54:51;-8.10;99.90
48206;DHT22;33995;48.202;16.260;2024-01-10T00:57:19;-8.00;99.90
48206;DHT22;33995;48.202;16.260;2024-01-10T00:59:47;-8.00;99.90
48206;DHT22;33995;48.202;16.260;2024-01-10T01:02:15;-8.00;99.90
48206;DHT22;33995;48.202;16.260;2024-01-10T01:04:44;-8.00;99.90
48206;DHT22;33995;48.202;16.260;2024-01-10T01:07:14;-8.00;99.90
48206;DHT22;33995;48.202;16.260;2024-01-10T01:09:41;-8.10;99.90
48206;DHT22;33995;48.202;16.260;2024-01-10T01:12:10;-8.20;99.90
48206;DHT22;33995;48.202;16.260;2024-01-10T01:14:38;-8.20;99.90
48206;DHT22;33995;48.202;16.260;2024-01-10T01:17:06;-8.30;99.90
48206;DHT22;33995;48.202;16.260;2024-01-10T01:19:34;-8.40;99.90
48206;DHT22;33995;48.202;16.260;2024-01-10T01:22:02;-8.40;99.90
48206;DHT22;33995;48.202;16.260;2024-01-10T01:24:29;-8.30;99.90
48206;DHT22;33995;48.202;16.260;2024-01-10T01:26:57;-8.30;99.90
48206;DHT22;33995;48.202;16.260;2024-01-10T01:29:24;-8.20;99.90
48206;DHT22;33995;48.202;16.260;2024-01-10T01:31:51;-8.30;99.90
48206;DHT22;33995;48.202;16.260;2024-01-10T01:34:21;-8.30;99.90
48206;DHT22;33995;48.202;16.260;2024-01-10T01:36:48;-8.30;99.90
48206;DHT22;33995;48.202;16.260;2024-01-10T01:39:19;-8.30;99.90
48206;DHT22;33995;48.202;16.260;2024-01-10T01:41:46;-8.30;99.90
48206;DHT22;33995;48.202;16.260;2024-01-10T01:44:15;-8.20;99.90
48206;DHT22;33995;48.202;16.260;2024-01-10T01:46:43;-8.20;99.90
48206;DHT22;33995;48.202;16.260;2024-01-10T01:49:11;-8.20;99.90
48206;DHT22;33995;48.202;16.260;2024-01-10T01:51:39;-8.20;99.90
48206;DHT22;33995;48.202;16.260;2024-01-10T01:54:08;-8.20;99.90
48206;DHT22;33995;48.202;16.260;2024-01-10T01:56:36;-8.20;99.90
48206;DHT22;33995;48.202;16.260;2024-01-10T01:59:21;-8.10;99.90
48206;DHT22;33995;48.202;16.260;2024-01-10T02:01:49;-8.00;99.90
48206;DHT22;33995;48.202;16.260;2024-01-10T02:04:18;-8.00;99.90
48206;DHT22;33995;48.202;16.260;2024-01-10T02:06:46;-8.10;99.90
48206;DHT22;33995;48.202;16.260;2024-01-10T02:09:13;-8.10;99.90
48206;DHT22;33995;48.202;16.260;2024-01-10T02:11:40;-8.00;99.90
48206;DHT22;33995;48.202;16.260;2024-01-10T02:14:07;-7.80;99.90
48206;DHT22;33995;48.202;16.260;2024-01-10T02:16:34;-7.80;99.90
48206;DHT22;33995;48.202;16.260;2024-01-10T02:19:01;-7.80;99.90
48206;DHT22;33995;48.202;16.260;2024-01-10T02:21:43;-7.70;99.90
48206;DHT22;33995;48.202;16.260;2024-01-10T02:24:10;-7.90;99.90
48206;DHT22;33995;48.202;16.260;2024-01-10T02:26:38;-7.90;99.90
48206;DHT22;33995;48.202;16.260;2024-01-10T02:29:06;-7.90;99.90
48206;DHT22;33995;48.202;16.260;2024-01-10T02:31:33;-7.90;99.90
48206;DHT22;33995;48.202;16.260;2024-01-10T02:34:00;-7.90;99.90
48206;DHT22;33995;48.202;16.260;2024-01-10T02:36:27;-7.90;99.90
48206;DHT22;33995;48.202;16.260;2024-01-10T02:38:54;-7.90;99.90
48206;DHT22;33995;48.202;16.260;2024-01-10T02:41:21;-7.70;99.90
48206;DHT22;33995;48.202;16.260;2024-01-10T02:43:51;-7.80;99.90
48206;DHT22;33995;48.202;16.260;2024-01-10T02:46:18;-7.80;99.90
48206;DHT22;33995;48.202;16.260;2024-01-10T02:48:46;-7.70;99.90
48206;DHT22;33995;48.202;16.260;2024-01-10T02:51:14;-7.60;99.90
48206;DHT22;33995;48.202;16.260;2024-01-10T02:53:41;-7.60;99.90
48206;DHT22;33995;48.202;16.260;2024-01-10T02:56:08;-7.60;99.90
48206;DHT22;33995;48.202;16.260;2024-01-10T02:58:35;-7.50;99.90
48206;DHT22;33995;48.202;16.260;2024-01-10T03:01:02;-7.60;99.90
48206;DHT22;33995;48.202;16.260;2024-01-10T03:03:30;-7.50;99.90
48206;DHT22;33995;48.202;16.260;2024-01-10T03:05:57;-7.50;99.90
48206;DHT22;33995;48.202;16.260;2024-01-10T03:08:24;-7.50;99.90
48206;DHT22;33995;48.202;16.260;2024-01-10T03:10:51;-7.40;99.90
48206;DHT22;33995;48.202;16.260;2024-01-10T03:13:18;-7.30;99.90
48206;DHT22;33995;48.202;16.260;2024-01-10T03:15:46;-7.30;99.90
48206;DHT22;33995;48.202;16.260;2024-01-10T03:18:13;-7.40;99.90
48206;DHT22;33995;48.202;16.260;2024-01-10T03:20:41;-7.40;99.90
48206;DHT22;33995;48.202;16.260;2024-01-10T03:23:08;-7.40;99.90
48206;DHT22;33995;48.202;16.260;2024-01-10T03:25:38;-7.40;99.90
48206;DHT22;33995;48.202;16.260;2024-01-10T03:28:05;-7.50;99.90
48206;DHT22;33995;48.202;16.260;2024-01-10T03:30:32;-7.60;99.90
48206;DHT22;33995;48.202;16.260;2024-01-10T03:32:59;-7.50;99.90
48206;DHT22;33995;48.202;16.260;2024-01-10T03:35:26;-7.50;99.90
48206;DHT22;33995;48.202;16.260;2024-01-10T03:37:53;-7.60;99.90
48206;DHT22;33995;48.202;16.260;2024-01-10T03:40:23;-7.60;99.90
48206;DHT22;33995;48.202;16.260;2024-01-10T03:42:50;-7.70;99.90
48206;DHT22;33995;48.202;16.260;2024-01-10T03:45:18;-7.70;99.90
48206;DHT22;33995;48.202;16.260;2024-01-10T03:47:48;-7.70;99.90
48206;DHT22;33995;48.202;16.260;2024-01-10T03:50:18;-7.80;99.90
48206;DHT22;33995;48.202;16.260;2024-01-10T03:52:46;-7.70;99.90
48206;DHT22;33995;48.202;16.260;2024-01-10T03:55:13;-7.70;99.90
48206;DHT22;33995;48.202;16.260;2024-01-10T03:57:42;-7.70;99.90
48206;DHT22;33995;48.202;16.260;2024-01-10T04:00:09;-7.60;99.90
48206;DHT22;33995;48.202;16.260;2024-01-10T04:02:37;-7.70;99.90
48206;DHT22;33995;48.202;16.260;2024-01-10T04:05:08;-7.60;99.90
48206;DHT22;33995;48.202;16.260;2024-01-10T04:07:38;-7.60;99.90
48206;DHT22;33995;48.202;16.260;2024-01-10T04:10:06;-7.60;99.90
48206;DHT22;33995;48.202;16.260;2024-01-10T04:12:37;-7.70;99.90
48206;DHT22;33995;48.202;16.260;2024-01-10T04:15:05;-7.70;99.90
48206;DHT22;33995;48.202;16.260;2024-01-10T04:17:32;-7.70;99.90
48206;DHT22;33995;48.202;16.260;2024-01-10T04:19:59;-7.70;99.90
48206;DHT22;33995;48.202;16.260;2024-01-10T04:22:26;-7.80;99.90
48206;DHT22;33995;48.202;16.260;2024-01-10T04:24:53;-7.80;99.90
48206;DHT22;33995;48.202;16.260;2024-01-10T04:27:20;-7.70;99.90
48206;DHT22;33995;48.202;16.260;2024-01-10T04:29:47;-7.70;99.90
48206;DHT22;33995;48.202;16.260;2024-01-10T04:32:14;-7.80;99.90
48206;DHT22;33995;48.202;16.260;2024-01-10T04:34:41;-7.80;99.90
48206;DHT22;33995;48.202;16.260;2024-01-10T04:37:08;-7.80;99.90
48206;DHT22;33995;48.202;16.260;2024-01-10T04:39:35;-7.80;99.90
48206;DHT22;33995;48.202;16.260;2024-01-10T04:42:04;-7.90;99.90
48206;DHT22;33995;48.202;16.260;2024-01-10T04:44:32;-7.90;99.90
48206;DHT22;33995;48.202;16.260;2024-01-10T04:46:59;-7.90;99.90
48206;DHT22;33995;48.202;16.260;2024-01-10T04:49:26;-7.90;99.90
48206;DHT22;33995;48.202;16.260;2024-01-10T04:51:53;-7.90;99.90
48206;DHT22;33995;48.202;16.260;2024-01-10T04:54:20;-7.90;99.90
48206;DHT22;33995;48.202;16.260;2024-01-10T04:56:47;-7.80;99.90
48206;DHT22;33995;48.202;16.260;2024-01-10T04:59:14;-7.80;99.90
48206;DHT22;33995;48.202;16.260;2024-01-10T05:01:41;-7.90;99.90
48206;DHT22;33995;48.202;16.260;2024-01-10T05:04:08;-7.80;99.90
48206;DHT22;33995;48.202;16.260;2024-01-10T05:06:36;-7.70;99.90
48206;DHT22;33995;48.202;16.260;2024-01-10T05:09:03;-7.80;99.90
48206;DHT22;33995;48.202;16.260;2024-01-10T05:11:31;-7.80;99.90
48206;DHT22;33995;48.202;16.260;2024-01-10T05:13:58;-7.70;99.90
48206;DHT22;33995;48.202;16.260;2024-01-10T05:16:25;-7.80;99.90
48206;DHT22;33995;48.202;16.260;2024-01-10T05:18:52;-7.80;99.90
48206;DHT22;33995;48.202;16.260;2024-01-10T05:21:19;-7.80;99.90
48206;DHT22;33995;48.202;16.260;2024-01-10T05:23:47;-7.80;99.90
48206;DHT22;33995;48.202;16.260;2024-01-10T05:26:14;-7.80;99.90
48206;DHT22;33995;48.202;16.260;2024-01-10T05:28:41;-7.70;99.90
48206;DHT22;33995;48.202;16.260;2024-01-10T05:31:08;-7.70;99.90
48206;DHT22;33995;48.202;16.260;2024-01-10T05:33:35;-7.70;99.90
48206;DHT22;33995;48.202;16.260;2024-01-10T05:36:03;-7.80;99.90
48206;DHT22;33995;48.202;16.260;2024-01-10T05:38:30;-7.80;99.90
48206;DHT22;33995;48.202;16.260;2024-01-10T05:40:57;-7.80;99.90
48206;DHT22;33995;48.202;16.260;2024-01-10T05:43:24;-7.90;99.90
48206;DHT22;33995;48.202;16.260;2024-01-10T05:45:51;-7.80;99.90
48206;DHT22;33995;48.202;16.260;2024-01-10T05:48:18;-7.70;99.90
48206;DHT22;33995;48.202;16.260;2024-01-10T05:50:45;-7.80;99.90
48206;DHT22;33995;48.202;16.260;2024-01-10T05:53:12;-7.80;99.90
48206;DHT22;33995;48.202;16.260;2024-01-10T05:55:44;-7.80;99.90
48206;DHT22;33995;48.202;16.260;2024-01-10T05:58:11;-7.80;99.90
48206;DHT22;33995;48.202;16.260;2024-01-10T06:00:38;-7.80;99.90
48206;DHT22;33995;48.202;16.260;2024-01-10T06:03:05;-7.80;99.90
48206;DHT22;33995;48.202;16.260;2024-01-10T06:05:32;-7.80;99.90
48206;DHT22;33995;48.202;16.260;2024-01-10T06:07:59;-7.70;99.90
48206;DHT22;33995;48.202;16.260;2024-01-10T06:10:26;-7.70;99.90
48206;DHT22;33995;48.202;16.260;2024-01-10T06:12:53;-7.70;99.90
48206;DHT22;33995;48.202;16.260;2024-01-10T06:15:20;-7.70;99.90
48206;DHT22;33995;48.202;16.260;2024-01-10T06:17:47;-7.70;99.90
48206;DHT22;33995;48.202;16.260;2024-01-10T06:20:17;-7.60;99.90
48206;DHT22;33995;48.202;16.260;2024-01-10T06:22:45;-7.60;99.90
48206;DHT22;33995;48.202;16.260;2024-01-10T06:25:13;-7.60;99.90
48206;DHT22;33995;48.202;16.260;2024-01-10T06:27:40;-7.60;99.90
48206;DHT22;33995;48.202;16.260;2024-01-10T06:30:08;-7.60;99.90
48206;DHT22;33995;48.202;16.260;2024-01-10T06:32:36;-7.60;99.90
48206;DHT22;33995;48.202;16.260;2024-01-10T06:35:04;-7.50;99.90
48206;DHT22;33995;48.202;16.260;2024-01-10T06:37:38;-7.50;99.90
48206;DHT22;33995;48.202;16.260;2024-01-10T06:40:05;-7.50;99.90
48206;DHT22;33995;48.202;16.260;2024-01-10T06:42:33;-7.50;99.90
48206;DHT22;33995;48.202;16.260;2024-01-10T06:45:00;-7.40;99.90
48206;DHT22;33995;48.202;16.260;2024-01-10T06:47:27;-7.30;99.90
48206;DHT22;33995;48.202;16.260;2024-01-10T06:49:55;-7.30;99.90
48206;DHT22;33995;48.202;16.260;2024-01-10T06:52:22;-7.30;99.90
48206;DHT22;33995;48.202;16.260;2024-01-10T06:54:49;-7.30;99.90
48206;DHT22;33995;48.202;16.260;2024-01-10T06:57:16;-7.30;99.90
48206;DHT22;33995;48.202;16.260;2024-01-10T06:59:44;-7.30;99.90
48206;DHT22;33995;48.202;16.260;2024-01-10T07:02:11;-7.30;99.90
48206;DHT22;33995;48.202;16.260;2024-01-10T07:04:38;-7.20;99.90
48206;DHT22;33995;48.202;16.260;2024-01-10T07:07:05;-7.20;99.90
48206;DHT22;33995;48.202;16.260;2024-01-10T07:09:35;-7.10;99.90
48206;DHT22;33995;48.202;16.260;2024-01-10T07:12:02;-7.00;99.90
48206;DHT22;33995;48.202;16.260;2024-01-10T07:14:32;-7.10;99.90
48206;DHT22;33995;48.202;16.260;2024-01-10T07:16:59;-7.00;99.90
48206;DHT22;33995;48.202;16.260;2024-01-10T07:19:26;-7.10;99.90
48206;DHT22;33995;48.202;16.260;2024-01-10T07:21:56;-7.10;99.90
48206;DHT22;33995;48.202;16.260;2024-01-10T07:24:23;-7.00;99.90
48206;DHT22;33995;48.202;16.260;2024-01-10T07:26:50;-7.00;99.90
48206;DHT22;33995;48.202;16.260;2024-01-10T07:29:18;-7.00;99.90
48206;DHT22;33995;48.202;16.260;2024-01-10T07:31:46;-6.90;99.90
48206;DHT22;33995;48.202;16.260;2024-01-10T07:34:15;-6.90;99.90
48206;DHT22;33995;48.202;16.260;2024-01-10T07:36:42;-6.80;99.90
48206;DHT22;33995;48.202;16.260;2024-01-10T07:39:10;-6.80;99.90
48206;DHT22;33995;48.202;16.260;2024-01-10T07:41:37;-6.70;99.90
48206;DHT22;33995;48.202;16.260;2024-01-10T07:44:04;-6.60;99.90
48206;DHT22;33995;48.202;16.260;2024-01-10T07:46:35;-6.60;99.90
48206;DHT22;33995;48.202;16.260;2024-01-10T07:49:05;-6.50;99.90
48206;DHT22;33995;48.202;16.260;2024-01-10T07:51:32;-6.50;99.90
48206;DHT22;33995;48.202;16.260;2024-01-10T07:54:02;-6.50;99.90
48206;DHT22;33995;48.202;16.260;2024-01-10T07:56:29;-6.40;99.90
48206;DHT22;33995;48.202;16.260;2024-01-10T07:58:57;-6.40;99.90
48206;DHT22;33995;48.202;16.260;2024-01-10T08:01:24;-6.30;99.90
48206;DHT22;33995;48.202;16.260;2024-01-10T08:03:52;-6.30;99.90
48206;DHT22;33995;48.202;16.260;2024-01-10T08:06:23;-6.20;99.90
48206;DHT22;33995;48.202;16.260;2024-01-10T08:08:58;-6.20;99.90
48206;DHT22;33995;48.202;16.260;2024-01-10T08:11:25;-6.10;99.90
48206;DHT22;33995;48.202;16.260;2024-01-10T08:13:53;-5.90;99.90
48206;DHT22;33995;48.202;16.260;2024-01-10T08:16:20;-5.90;99.90
48206;DHT22;33995;48.202;16.260;2024-01-10T08:18:48;-5.70;99.90
48206;DHT22;33995;48.202;16.260;2024-01-10T08:21:15;-5.80;99.90
48206;DHT22;33995;48.202;16.260;2024-01-10T08:23:42;-5.70;99.90
48206;DHT22;33995;48.202;16.260;2024-01-10T08:26:10;-5.60;99.90
48206;DHT22;33995;48.202;16.260;2024-01-10T08:28:37;-5.60;99.90
48206;DHT22;33995;48.202;16.260;2024-01-10T08:31:04;-5.50;99.90
48206;DHT22;33995;48.202;16.260;2024-01-10T08:33:32;-5.40;99.90
48206;DHT22;33995;48.202;16.260;2024-01-10T08:35:59;-5.30;99.90
48206;DHT22;33995;48.202;16.260;2024-01-10T08:38:26;-5.30;99.90
48206;DHT22;33995;48.202;16.260;2024-01-10T08:40:54;-5.20;99.90
48206;DHT22;33995;48.202;16.260;2024-01-10T08:43:21;-5.10;99.90
48206;DHT22;33995;48.202;16.260;2024-01-10T08:45:48;-5.00;99.90
48206;DHT22;33995;48.202;16.260;2024-01-10T08:48:15;-4.90;99.90
48206;DHT22;33995;48.202;16.260;2024-01-10T08:50:42;-4.90;99.90
48206;DHT22;33995;48.202;16.260;2024-01-10T08:53:10;-4.90;99.90
48206;DHT22;33995;48.202;16.260;2024-01-10T08:55:38;-4.90;99.90
48206;DHT22;33995;48.202;16.260;2024-01-10T08:58:05;-4.80;99.90
48206;DHT22;33995;48.202;16.260;2024-01-10T09:00:32;-4.90;99.90
48206;DHT22;33995;48.202;16.260;2024-01-10T09:03:00;-4.80;99.90
48206;DHT22;33995;48.202;16.260;2024-01-10T09:05:27;-4.80;99.90
48206;DHT22;33995;48.202;16.260;2024-01-10T09:07:54;-4.70;99.90
48206;DHT22;33995;48.202;16.260;2024-01-10T09:10:22;-4.70;99.90
48206;DHT22;33995;48.202;16.260;2024-01-10T09:12:49;-4.60;99.90
48206;DHT22;33995;48.202;16.260;2024-01-10T09:15:16;-4.60;99.90
48206;DHT22;33995;48.202;16.260;2024-01-10T09:17:44;-4.80;99.90
48206;DHT22;33995;48.202;16.260;2024-01-10T09:20:12;-4.70;99.90
48206;DHT22;33995;48.202;16.260;2024-01-10T09:22:39;-4.60;99.90
48206;DHT22;33995;48.202;16.260;2024-01-10T09:25:07;-4.40;99.90
48206;DHT22;33995;48.202;16.260;2024-01-10T09:27:34;-4.30;99.90
48206;DHT22;33995;48.202;16.260;2024-01-10T09:30:05;-4.20;99.90
48206;DHT22;33995;48.202;16.260;2024-01-10T09:32:36;-4.10;99.90
48206;DHT22;33995;48.202;16.260;2024-01-10T09:35:03;-4.00;99.90
48206;DHT22;33995;48.202;16.260;2024-01-10T09:37:32;-3.90;99.90
48206;DHT22;33995;48.202;16.260;2024-01-10T09:40:00;-3.90;99.90
48206;DHT22;33995;48.202;16.260;2024-01-10T09:42:28;-3.80;99.90
48206;DHT22;33995;48.202;16.260;2024-01-10T09:45:04;-3.70;99.90
48206;DHT22;33995;48.202;16.260;2024-01-10T09:47:32;-3.60;99.90
48206;DHT22;33995;48.202;16.260;2024-01-10T09:50:01;-3.50;99.90
48206;DHT22;33995;48.202;16.260;2024-01-10T09:52:35;-3.60;99.90
48206;DHT22;33995;48.202;16.260;2024-01-10T09:55:08;-3.50;99.90
48206;DHT22;33995;48.202;16.260;2024-01-10T09:57:36;-3.40;99.90
48206;DHT22;33995;48.202;16.260;2024-01-10T10:00:04;-3.40;99.90
48206;DHT22;33995;48.202;16.260;2024-01-10T10:02:33;-3.30;99.90
48206;DHT22;33995;48.202;16.260;2024-01-10T10:05:14;-3.30;99.90
48206;DHT22;33995;48.202;16.260;2024-01-10T10:10:11;-3.30;99.90
48206;DHT22;33995;48.202;16.260;2024-01-10T10:12:46;-3.10;99.90
48206;DHT22;33995;48.202;16.260;2024-01-10T10:15:16;-3.10;99.90
48206;DHT22;33995;48.202;16.260;2024-01-10T10:17:45;-3.00;99.90
48206;DHT22;33995;48.202;16.260;2024-01-10T10:20:22;-3.00;99.90
48206;DHT22;33995;48.202;16.260;2024-01-10T10:23:03;-2.90;99.90
48206;DHT22;33995;48.202;16.260;2024-01-10T10:25:31;-2.80;99.90
48206;DHT22;33995;48.202;16.260;2024-01-10T10:28:04;-2.80;99.90
48206;DHT22;33995;48.202;16.260;2024-01-10T10:30:32;-2.70;99.90
48206;DHT22;33995;48.202;16.260;2024-01-10T10:33:02;-2.70;99.90
48206;DHT22;33995;48.202;16.260;2024-01-10T10:35:32;-2.60;99.90
48206;DHT22;33995;48.202;16.260;2024-01-10T10:38:07;-2.50;99.90
48206;DHT22;33995;48.202;16.260;2024-01-10T10:40:36;-2.50;99.90
48206;DHT22;33995;48.202;16.260;2024-01-10T10:43:04;-2.30;99.90
48206;DHT22;33995;48.202;16.260;2024-01-10T10:45:33;-2.20;99.90
48206;DHT22;33995;48.202;16.260;2024-01-10T10:48:01;-2.20;99.90
48206;DHT22;33995;48.202;16.260;2024-01-10T10:50:34;-2.10;99.90
48206;DHT22;33995;48.202;16.260;2024-01-10T10:53:03;-2.10;99.90
48206;DHT22;33995;48.202;16.260;2024-01-10T10:55:32;-2.00;99.90
48206;DHT22;33995;48.202;16.260;2024-01-10T10:58:01;-1.90;99.90
48206;DHT22;33995;48.202;16.260;2024-01-10T11:00:38;-2.00;99.90
48206;DHT22;33995;48.202;16.260;2024-01-10T11:03:09;-1.90;99.90
48206;DHT22;33995;48.202;16.260;2024-01-10T11:05:40;-1.80;99.90
48206;DHT22;33995;48.202;16.260;2024-01-10T11:08:11;-1.80;99.90
48206;DHT22;33995;48.202;16.260;2024-01-10T11:10:40;-1.70;99.90
48206;DHT22;33995;48.202;16.260;2024-01-10T11:13:37;-1.60;99.90
48206;DHT22;33995;48.202;16.260;2024-01-10T11:18:54;-1.30;99.90
48206;DHT22;33995;48.202;16.260;2024-01-10T11:24:05;-1.20;99.90
48206;DHT22;33995;48.202;16.260;2024-01-10T11:26:33;-1.10;99.90
48206;DHT22;33995;48.202;16.260;2024-01-10T11:29:00;-1.10;99.90
48206;DHT22;33995;48.202;16.260;2024-01-10T11:31:32;-1.10;99.90
48206;DHT22;33995;48.202;16.260;2024-01-10T11:34:00;-1.00;99.90
48206;DHT22;33995;48.202;16.260;2024-01-10T11:36:29;-0.90;99.90
48206;DHT22;33995;48.202;16.260;2024-01-10T11:39:03;-0.80;99.90
48206;DHT22;33995;48.202;16.260;2024-01-10T11:41:36;-0.70;99.90
48206;DHT22;33995;48.202;16.260;2024-01-10T11:46:40;-0.50;99.90
48206;DHT22;33995;48.202;16.260;2024-01-10T11:49:11;-0.50;99.90
48206;DHT22;33995;48.202;16.260;2024-01-10T11:57:11;-0.20;99.90
48206;DHT22;33995;48.202;16.260;2024-01-10T11:59:43;-0.10;99.90
48206;DHT22;33995;48.202;16.260;2024-01-10T12:02:13;0.00;99.90
48206;DHT22;33995;48.202;16.260;2024-01-10T12:04:41;0.00;99.90
48206;DHT22;33995;48.202;16.260;2024-01-10T12:07:15;0.10;99.90
48206;DHT22;33995;48.202;16.260;2024-01-10T12:09:43;0.20;99.90
48206;DHT22;33995;48.202;16.260;2024-01-10T12:12:15;0.40;99.90
48206;DHT22;33995;48.202;16.260;2024-01-10T12:14:42;0.40;99.90
48206;DHT22;33995;48.202;16.260;2024-01-10T12:17:13;0.60;99.90
48206;DHT22;33995;48.202;16.260;2024-01-10T12:19:40;0.60;99.90
48206;DHT22;33995;48.202;16.260;2024-01-10T12:22:13;0.60;99.90
48206;DHT22;33995;48.202;16.260;2024-01-10T12:24:44;0.70;99.90
48206;DHT22;33995;48.202;16.260;2024-01-10T12:27:21;0.80;99.90
48206;DHT22;33995;48.202;16.260;2024-01-10T12:29:51;0.80;99.90
48206;DHT22;33995;48.202;16.260;2024-01-10T12:32:20;0.80;99.90
48206;DHT22;33995;48.202;16.260;2024-01-10T12:34:57;0.80;99.90
48206;DHT22;33995;48.202;16.260;2024-01-10T12:37:24;0.80;99.90
48206;DHT22;33995;48.202;16.260;2024-01-10T12:39:51;0.70;99.90
48206;DHT22;33995;48.202;16.260;2024-01-10T12:42:19;0.90;99.90
48206;DHT22;33995;48.202;16.260;2024-01-10T12:44:47;0.90;99.90
48206;DHT22;33995;48.202;16.260;2024-01-10T12:47:21;0.80;99.90
48206;DHT22;33995;48.202;16.260;2024-01-10T12:49:49;0.90;99.90
48206;DHT22;33995;48.202;16.260;2024-01-10T12:52:16;1.00;99.90
48206;DHT22;33995;48.202;16.260;2024-01-10T12:54:48;0.90;99.90
48206;DHT22;33995;48.202;16.260;2024-01-10T12:57:15;0.80;99.90
48206;DHT22;33995;48.202;16.260;2024-01-10T12:59:42;0.90;99.90
48206;DHT22;33995;48.202;16.260;2024-01-10T13:02:09;0.80;99.90
48206;DHT22;33995;48.202;16.260;2024-01-10T13:04:36;0.80;99.90
48206;DHT22;33995;48.202;16.260;2024-01-10T13:07:03;0.90;99.90
48206;DHT22;33995;48.202;16.260;2024-01-10T13:09:30;0.90;99.90
48206;DHT22;33995;48.202;16.260;2024-01-10T13:11:57;1.00;99.90
48206;DHT22;33995;48.202;16.260;2024-01-10T13:14:26;1.10;99.90
48206;DHT22;33995;48.202;16.260;2024-01-10T13:16:54;1.10;99.90
48206;DHT22;33995;48.202;16.260;2024-01-10T13:19:26;1.10;99.90
48206;DHT22;33995;48.202;16.260;2024-01-10T13:21:53;1.00;99.90
48206;DHT22;33995;48.202;16.260;2024-01-10T13:24:21;1.00;99.90
48206;DHT22;33995;48.202;16.260;2024-01-10T13:26:48;1.00;99.90
48206;DHT22;33995;48.202;16.260;2024-01-10T13:29:15;1.40;99.90
48206;DHT22;33995;48.202;16.260;2024-01-10T13:31:43;2.60;99.90
48206;DHT22;33995;48.202;16.260;2024-01-10T13:34:10;3.10;99.90
48206;DHT22;33995;48.202;16.260;2024-01-10T13:36:38;3.90;99.90
48206;DHT22;33995;48.202;16.260;2024-01-10T13:39:05;4.70;99.90
48206;DHT22;33995;48.202;16.260;2024-01-10T13:41:34;5.60;99.90
48206;DHT22;33995;48.202;16.260;2024-01-10T13:44:01;6.50;99.90
48206;DHT22;33995;48.202;16.260;2024-01-10T13:46:29;6.10;99.90
48206;DHT22;33995;48.202;16.260;2024-01-10T13:48:56;5.80;99.90
48206;DHT22;33995;48.202;16.260;2024-01-10T13:51:23;4.70;99.90
48206;DHT22;33995;48.202;16.260;2024-01-10T13:53:50;4.40;99.90
48206;DHT22;33995;48.202;16.260;2024-01-10T13:56:18;5.20;99.90
48206;DHT22;33995;48.202;16.260;2024-01-10T13:58:48;5.50;99.90
48206;DHT22;33995;48.202;16.260;2024-01-10T14:01:16;5.60;99.90
48206;DHT22;33995;48.202;16.260;2024-01-10T14:03:43;5.10;99.90
48206;DHT22;33995;48.202;16.260;2024-01-10T14:06:10;4.60;99.90
48206;DHT22;33995;48.202;16.260;2024-01-10T14:08:37;3.60;99.90
48206;DHT22;33995;48.202;16.260;2024-01-10T14:11:07;3.20;99.90
48206;DHT22;33995;48.202;16.260;2024-01-10T14:13:34;3.40;99.90
48206;DHT22;33995;48.202;16.260;2024-01-10T14:16:02;3.00;99.90
48206;DHT22;33995;48.202;16.260;2024-01-10T14:18:29;2.60;99.90
48206;DHT22;33995;48.202;16.260;2024-01-10T14:20:56;2.50;99.90
48206;DHT22;33995;48.202;16.260;2024-01-10T14:23:23;2.40;99.90
48206;DHT22;33995;48.202;16.260;2024-01-10T14:25:51;2.10;99.90
48206;DHT22;33995;48.202;16.260;2024-01-10T14:28:20;2.00;99.90
48206;DHT22;33995;48.202;16.260;2024-01-10T14:30:47;1.70;99.90
48206;DHT22;33995;48.202;16.260;2024-01-10T14:33:15;1.60;99.90
48206;DHT22;33995;48.202;16.260;2024-01-10T14:35:42;1.50;99.90
48206;DHT22;33995;48.202;16.260;2024-01-10T14:38:09;1.40;99.90
48206;DHT22;33995;48.202;16.260;2024-01-10T14:40:36;1.20;99.90
48206;DHT22;33995;48.202;16.260;2024-01-10T14:43:03;1.20;99.90
48206;DHT22;33995;48.202;16.260;2024-01-10T14:45:30;1.00;99.90
48206;DHT22;33995;48.202;16.260;2024-01-10T14:47:57;0.80;99.90
48206;DHT22;33995;48.202;16.260;2024-01-10T14:50:25;0.70;99.90
48206;DHT22;33995;48.202;16.260;2024-01-10T14:52:52;0.60;99.90
48206;DHT22;33995;48.202;16.260;2024-01-10T14:55:19;0.60;99.90
48206;DHT22;33995;48.202;16.260;2024-01-10T14:57:46;0.60;99.90
48206;DHT22;33995;48.202;16.260;2024-01-10T15:00:14;0.50;99.90
48206;DHT22;33995;48.202;16.260;2024-01-10T15:02:42;0.50;99.90
48206;DHT22;33995;48.202;16.260;2024-01-10T15:05:11;0.40;99.90
48206;DHT22;33995;48.202;16.260;2024-01-10T15:07:39;0.40;99.90
48206;DHT22;33995;48.202;16.260;2024-01-10T15:10:06;0.40;99.90
48206;DHT22;33995;48.202;16.260;2024-01-10T15:12:36;0.30;99.90
48206;DHT22;33995;48.202;16.260;2024-01-10T15:15:04;0.20;99.90
48206;DHT22;33995;48.202;16.260;2024-01-10T15:17:31;0.20;99.90
48206;DHT22;33995;48.202;16.260;2024-01-10T15:19:59;0.10;99.90
48206;DHT22;33995;48.202;16.260;2024-01-10T15:22:26;0.00;99.90
48206;DHT22;33995;48.202;16.260;2024-01-10T15:24:54;0.00;99.90
48206;DHT22;33995;48.202;16.260;2024-01-10T15:27:21;0.00;99.90
48206;DHT22;33995;48.202;16.260;2024-01-10T15:29:49;0.00;99.90
48206;DHT22;33995;48.202;16.260;2024-01-10T15:32:28;-0.10;99.90
48206;DHT22;33995;48.202;16.260;2024-01-10T15:34:57;-0.10;99.90
48206;DHT22;33995;48.202;16.260;2024-01-10T15:37:24;-0.10;99.90
48206;DHT22;33995;48.202;16.260;2024-01-10T15:39:52;-0.10;99.90
48206;DHT22;33995;48.202;16.260;2024-01-10T15:42:20;-0.20;99.90